createdAt,value
2023-02-07T00:02:27.647Z,14.97
2023-02-07T00:05:02.291Z,14.90
2023-02-07T00:07:35.330Z,15.67
2023-02-07T00:10:10.306Z,14.67
2023-02-07T00:12:43.521Z,15.17
2023-02-07T00:15:16.658Z,15.87
2023-02-07T00:17:49.733Z,15.93
2023-02-07T00:20:25.180Z,18.23
2023-02-07T00:22:58.245Z,15.70
2023-02-07T00:25:31.314Z,16.90
2023-02-07T00:28:04.750Z,16.00
2023-02-07T00:30:37.952Z,18.77
2023-02-07T00:33:11.062Z,15.93
2023-02-07T00:35:45.578Z,17.17
2023-02-07T00:38:18.558Z,17.50
2023-02-07T00:40:51.578Z,17.23
2023-02-07T00:43:29.824Z,20.47
2023-02-07T00:46:05.502Z,16.50
2023-02-07T00:48:40.225Z,17.87
2023-02-07T00:51:15.741Z,16.73
2023-02-07T00:53:49.015Z,16.37
2023-02-07T00:56:22.896Z,16.60
2023-02-07T00:58:56.010Z,18.93
2023-02-07T01:01:29.241Z,18.80
2023-02-07T01:04:02.706Z,18.43
2023-02-07T01:06:37.162Z,18.57
2023-02-07T01:09:11.375Z,19.10
2023-02-07T01:11:44.429Z,17.80
2023-02-07T01:14:17.527Z,18.70
2023-02-07T01:16:50.637Z,19.03
2023-02-07T01:19:23.753Z,20.30
2023-02-07T01:21:59.834Z,20.10
2023-02-07T01:24:35.212Z,19.90
2023-02-07T01:27:08.449Z,19.87
2023-02-07T01:29:41.685Z,20.43
2023-02-07T01:32:14.717Z,19.43
2023-02-07T01:34:47.817Z,20.17
2023-02-07T01:37:22.294Z,20.37
2023-02-07T01:39:55.906Z,22.40
2023-02-07T01:42:30.102Z,21.40
2023-02-07T01:45:14.295Z,20.97
2023-02-07T01:47:47.626Z,21.17
2023-02-07T01:50:21.462Z,20.83
2023-02-07T01:52:56.712Z,19.23
2023-02-07T01:55:35.295Z,20.30
2023-02-07T01:58:09.337Z,21.80
2023-02-07T02:00:42.598Z,23.10
2023-02-07T02:03:16.188Z,21.87
2023-02-07T02:05:54.308Z,19.67
2023-02-07T02:08:29.083Z,20.53
2023-02-07T02:11:23.476Z,22.00
2023-02-07T02:14:06.155Z,20.27
2023-02-07T02:16:44.371Z,20.43
2023-02-07T02:19:51.348Z,20.67
2023-02-07T02:23:00.355Z,21.77
2023-02-07T02:26:31.179Z,21.17
2023-02-07T02:30:00.639Z,20.77
2023-02-07T02:33:26.774Z,21.27
2023-02-07T02:36:11.976Z,23.60
2023-02-07T02:38:52.025Z,20.43
2023-02-07T02:41:30.890Z,25.40
2023-02-07T02:44:10.002Z,23.67
2023-02-07T02:46:44.032Z,23.10
2023-02-07T02:49:19.678Z,22.00
2023-02-07T02:51:53.427Z,21.10
2023-02-07T02:54:30.039Z,22.60
2023-02-07T02:57:33.469Z,22.07
2023-02-07T03:00:31.289Z,21.67
2023-02-07T03:03:19.410Z,23.63
2023-02-07T03:06:08.267Z,24.03
2023-02-07T03:08:47.509Z,19.47
2023-02-07T03:11:23.608Z,21.17
2023-02-07T03:14:04.598Z,20.77
2023-02-07T03:16:55.673Z,21.73
2023-02-07T03:19:34.676Z,24.60
2023-02-07T03:22:13.802Z,22.77
2023-02-07T03:24:52.628Z,20.83
2023-02-07T03:27:29.200Z,20.80
2023-02-07T03:30:07.802Z,21.50
2023-02-07T03:32:45.375Z,21.53
2023-02-07T03:35:25.307Z,22.83
2023-02-07T03:38:02.458Z,22.13
2023-02-07T03:40:42.260Z,23.83
2023-02-07T03:43:19.666Z,21.10
2023-02-07T03:45:52.868Z,21.97
2023-02-07T03:48:26.525Z,20.47
2023-02-07T03:50:59.667Z,21.33
2023-02-07T03:53:34.170Z,20.47
2023-02-07T03:56:08.186Z,21.00
2023-02-07T03:58:41.200Z,20.70
2023-02-07T04:01:14.252Z,20.63
2023-02-07T04:03:47.324Z,21.17
2023-02-07T04:06:20.708Z,19.10
2023-02-07T04:08:55.104Z,20.83
2023-02-07T04:11:28.165Z,18.63
2023-02-07T04:14:01.321Z,19.67
2023-02-07T04:16:34.430Z,18.30
2023-02-07T04:19:07.538Z,18.07
2023-02-07T04:21:40.763Z,17.83
2023-02-07T04:24:15.556Z,17.50
2023-02-07T04:26:48.636Z,17.47
2023-02-07T04:29:21.947Z,16.77
2023-02-07T04:31:55.957Z,18.57
2023-02-07T04:34:30.583Z,19.13
2023-02-07T04:37:03.800Z,16.13
2023-02-07T04:39:38.142Z,18.20
2023-02-07T04:42:11.269Z,19.23
2023-02-07T04:44:44.312Z,19.47
2023-02-07T04:47:17.331Z,18.63
2023-02-07T04:49:50.493Z,18.70
2023-02-07T04:52:23.694Z,17.73
2023-02-07T04:54:58.171Z,16.17
2023-02-07T04:57:31.278Z,17.93
2023-02-07T05:00:05.649Z,15.07
2023-02-07T05:02:39.006Z,15.67
2023-02-07T05:05:12.253Z,15.33
2023-02-07T05:07:45.733Z,15.17
2023-02-07T05:10:20.348Z,16.37
2023-02-07T05:12:54.480Z,15.30
2023-02-07T05:15:27.552Z,13.87
2023-02-07T05:18:01.228Z,16.70
2023-02-07T05:20:34.291Z,15.73
2023-02-07T05:23:07.316Z,14.40
2023-02-07T05:25:43.107Z,14.37
2023-02-07T05:28:16.693Z,13.47
2023-02-07T05:30:50.055Z,14.33
2023-02-07T05:33:22.221Z,15.53
2023-02-07T05:35:55.333Z,13.40
2023-02-07T05:38:28.535Z,14.37
2023-02-07T05:41:02.949Z,13.67
2023-02-07T05:43:35.971Z,17.53
2023-02-07T05:46:09.144Z,16.00
2023-02-07T05:48:42.490Z,16.60
2023-02-07T05:51:15.516Z,16.80
2023-02-07T05:53:48.566Z,15.07
2023-02-07T05:56:23.268Z,16.90
2023-02-07T05:58:56.277Z,20.00
2023-02-07T06:01:29.333Z,19.87
2023-02-07T06:04:02.419Z,19.17
2023-02-07T06:06:35.517Z,21.20
2023-02-07T06:09:08.648Z,49.63
2023-02-07T06:11:43.200Z,29.73
2023-02-07T06:14:17.499Z,19.10
2023-02-07T06:16:50.525Z,14.17
2023-02-07T06:19:23.599Z,13.97
2023-02-07T06:22:00.514Z,15.83
2023-02-07T06:24:33.607Z,14.13
2023-02-07T06:27:08.295Z,14.80
2023-02-07T06:29:41.434Z,17.07
2023-02-07T06:32:14.459Z,14.37
2023-02-07T06:34:47.532Z,13.27
2023-02-07T06:37:20.697Z,13.67
2023-02-07T06:39:53.744Z,15.57
2023-02-07T06:42:28.101Z,14.90
2023-02-07T06:45:01.135Z,14.13
2023-02-07T06:47:34.211Z,16.03
2023-02-07T06:50:09.221Z,16.83
2023-02-07T06:52:42.305Z,15.10
2023-02-07T06:55:15.594Z,15.50
2023-02-07T06:57:50.048Z,15.53
2023-02-07T07:00:23.379Z,16.43
2023-02-07T07:02:56.567Z,15.20
2023-02-07T07:05:30.278Z,16.60
2023-02-07T07:08:03.727Z,16.63
2023-02-07T07:10:36.939Z,17.23
2023-02-07T07:13:11.475Z,16.60
2023-02-07T07:15:44.678Z,14.67
2023-02-07T07:18:17.803Z,17.60
2023-02-07T07:20:54.300Z,16.30
2023-02-07T07:23:27.520Z,16.50
2023-02-07T07:26:00.585Z,16.30
2023-02-07T07:28:35.057Z,19.73
2023-02-07T07:31:09.777Z,16.53
2023-02-07T07:33:43.043Z,16.53
2023-02-07T07:36:16.269Z,17.77
2023-02-07T07:38:50.161Z,16.13
2023-02-07T07:41:23.721Z,15.20
2023-02-07T07:43:58.167Z,15.40
2023-02-07T07:46:31.320Z,15.33
2023-02-07T07:49:04.377Z,14.80
2023-02-07T07:51:37.775Z,15.70
2023-02-07T07:54:10.827Z,16.03
2023-02-07T07:56:43.936Z,15.50
2023-02-07T07:59:24.006Z,16.30
2023-02-07T08:01:57.467Z,15.10
2023-02-07T08:04:30.537Z,15.77
2023-02-07T08:07:03.695Z,16.67
2023-02-07T08:09:36.810Z,16.30
2023-02-07T08:12:09.848Z,15.43
2023-02-07T08:14:44.270Z,16.17
2023-02-07T08:17:17.340Z,16.10
2023-02-07T08:19:50.357Z,16.70
2023-02-07T08:22:23.394Z,16.87
2023-02-07T08:24:56.549Z,17.17
2023-02-07T08:27:29.651Z,16.03
2023-02-07T08:30:04.799Z,15.17
2023-02-07T08:32:39.614Z,15.57
2023-02-07T08:35:12.890Z,15.90
2023-02-07T08:37:45.966Z,15.30
2023-02-07T08:40:19.646Z,14.40
2023-02-07T08:42:52.848Z,15.43
2023-02-07T08:45:27.501Z,15.87
2023-02-07T08:48:00.670Z,17.13
2023-02-07T08:50:33.728Z,16.53
2023-02-07T08:53:06.920Z,16.23
2023-02-07T08:55:42.178Z,15.50
2023-02-07T08:58:15.756Z,16.07
2023-02-07T09:00:50.334Z,15.00
2023-02-07T09:03:23.582Z,15.67
2023-02-07T09:06:00.004Z,15.97
2023-02-07T09:08:33.495Z,16.47
2023-02-07T09:11:09.897Z,15.60
2023-02-07T09:13:45.337Z,16.00
2023-02-07T09:16:19.820Z,15.23
2023-02-07T09:18:53.400Z,16.23
2023-02-07T09:21:26.526Z,16.87
2023-02-07T09:23:59.536Z,15.13
2023-02-07T09:26:34.391Z,16.07
2023-02-07T09:29:10.174Z,15.67
2023-02-07T09:31:46.304Z,15.77
2023-02-07T09:34:19.667Z,16.83
2023-02-07T09:36:53.052Z,15.53
2023-02-07T09:39:26.915Z,17.27
2023-02-07T09:42:12.636Z,16.67
2023-02-07T09:44:56.972Z,16.50
2023-02-07T09:47:33.595Z,16.67
2023-02-07T09:50:13.617Z,16.07
2023-02-07T09:52:51.219Z,14.97
2023-02-07T09:55:27.221Z,15.63
2023-02-07T09:58:09.013Z,16.67
2023-02-07T10:00:43.693Z,15.97
2023-02-07T10:03:21.644Z,19.07
2023-02-07T10:06:09.315Z,15.97
2023-02-07T10:08:55.778Z,16.70
2023-02-07T10:11:43.983Z,16.17
2023-02-07T10:14:38.859Z,15.67
2023-02-07T10:17:34.773Z,15.93
2023-02-07T10:20:29.644Z,15.40
2023-02-07T10:23:23.215Z,14.17
2023-02-07T10:26:09.853Z,15.70
2023-02-07T10:29:07.842Z,14.97
2023-02-07T10:31:48.562Z,14.77
2023-02-07T10:34:25.470Z,15.67
2023-02-07T10:36:59.957Z,14.43
2023-02-07T10:39:38.486Z,14.70
2023-02-07T10:42:16.548Z,14.07
2023-02-07T10:44:49.553Z,14.53
2023-02-07T10:47:23.337Z,13.50
2023-02-07T10:49:58.418Z,12.97
2023-02-07T10:52:38.012Z,14.33
2023-02-07T10:55:15.254Z,14.73
2023-02-07T10:58:02.805Z,12.67
2023-02-07T11:00:40.877Z,13.10
2023-02-07T11:03:16.040Z,12.33
2023-02-07T11:05:59.360Z,12.53
2023-02-07T11:08:36.033Z,12.10
2023-02-07T11:11:32.582Z,12.40
2023-02-07T11:14:07.903Z,11.87
2023-02-07T11:16:45.692Z,12.27
2023-02-07T11:19:24.476Z,13.00
2023-02-07T11:22:11.409Z,11.43
2023-02-07T11:24:47.458Z,12.87
2023-02-07T11:27:22.752Z,11.93
2023-02-07T11:29:59.005Z,11.53
2023-02-07T11:32:32.409Z,10.97
2023-02-07T11:35:09.536Z,13.10
2023-02-07T11:37:51.040Z,11.80
2023-02-07T11:40:30.140Z,11.80
2023-02-07T11:43:12.166Z,12.43
2023-02-07T11:45:48.510Z,11.90
2023-02-07T11:48:27.242Z,11.30
2023-02-07T11:51:04.302Z,11.90
2023-02-07T11:53:41.654Z,11.70
2023-02-07T11:56:26.716Z,11.67
2023-02-07T11:59:00.810Z,11.40
2023-02-07T12:01:35.791Z,11.20
2023-02-07T12:04:13.294Z,12.67
2023-02-07T12:06:53.675Z,12.13
2023-02-07T12:09:35.486Z,12.10
2023-02-07T12:12:19.280Z,11.43
2023-02-07T12:14:56.653Z,10.67
2023-02-07T12:17:41.015Z,9.90
2023-02-07T12:20:23.571Z,10.07
2023-02-07T12:23:21.749Z,10.60
2023-02-07T12:26:03.038Z,11.50
2023-02-07T12:28:45.086Z,10.10
2023-02-07T12:31:26.140Z,10.33
2023-02-07T12:34:05.389Z,10.10
2023-02-07T12:36:44.763Z,10.53
2023-02-07T12:39:26.737Z,10.43
2023-02-07T12:42:19.470Z,9.50
2023-02-07T12:44:59.097Z,10.40
2023-02-07T12:47:53.561Z,10.47
2023-02-07T12:50:44.998Z,10.90
2023-02-07T12:53:38.181Z,10.43
2023-02-07T12:56:28.589Z,9.97
2023-02-07T12:59:17.098Z,10.43
2023-02-07T13:02:05.559Z,9.80
2023-02-07T13:05:31.937Z,11.07
2023-02-07T13:08:17.837Z,9.50
2023-02-07T13:11:02.648Z,9.90
2023-02-07T13:13:49.318Z,8.73
2023-02-07T13:16:32.540Z,8.10
2023-02-07T13:19:19.963Z,8.70
2023-02-07T13:22:00.036Z,10.17
2023-02-07T13:24:36.608Z,8.53
2023-02-07T13:27:17.666Z,7.33
2023-02-07T13:29:52.388Z,7.03
2023-02-07T13:32:28.530Z,7.80
2023-02-07T13:35:07.552Z,7.20
2023-02-07T13:37:51.616Z,6.83
2023-02-07T13:40:35.658Z,8.00
2023-02-07T13:43:17.352Z,7.77
2023-02-07T13:45:59.224Z,9.40
2023-02-07T13:48:42.111Z,8.47
2023-02-07T13:51:24.365Z,8.30
2023-02-07T13:54:09.775Z,7.50
2023-02-07T13:57:16.056Z,7.93
2023-02-07T14:00:18.690Z,7.87
2023-02-07T14:02:54.526Z,8.00
2023-02-07T14:05:31.987Z,8.53
2023-02-07T14:08:24.792Z,8.20
2023-02-07T14:10:59.025Z,8.20
2023-02-07T14:13:35.096Z,8.27
2023-02-07T14:16:11.922Z,8.43
2023-02-07T14:18:51.274Z,8.53
2023-02-07T14:21:42.677Z,8.83
2023-02-07T14:24:33.150Z,8.57
2023-02-07T14:27:29.437Z,10.00
2023-02-07T14:30:28.610Z,9.23
2023-02-07T14:33:15.644Z,8.80
2023-02-07T14:36:21.453Z,8.70
2023-02-07T14:39:31.191Z,9.47
2023-02-07T14:42:14.026Z,8.87
2023-02-07T14:44:49.892Z,8.60
2023-02-07T14:47:27.361Z,9.50
2023-02-07T14:50:02.116Z,9.47
2023-02-07T14:52:39.870Z,9.10
2023-02-07T14:55:19.598Z,11.10
2023-02-07T14:57:58.639Z,11.00
2023-02-07T15:00:36.722Z,9.40
2023-02-07T15:03:14.947Z,9.57
2023-02-07T15:05:53.669Z,10.00
2023-02-07T15:08:30.321Z,10.77
2023-02-07T15:11:07.424Z,10.57
2023-02-07T15:13:45.286Z,11.30
2023-02-07T15:16:21.221Z,12.27
2023-02-07T15:18:57.971Z,10.17
2023-02-07T15:21:35.500Z,10.90
2023-02-07T15:24:16.792Z,11.07
2023-02-07T15:26:55.871Z,11.17
2023-02-07T15:29:32.119Z,10.93
2023-02-07T15:32:22.171Z,11.00
2023-02-07T15:34:56.308Z,10.30
2023-02-07T15:37:29.546Z,10.37
2023-02-07T15:40:02.777Z,10.23
2023-02-07T15:42:37.235Z,10.57
2023-02-07T15:45:29.753Z,10.77
2023-02-07T15:48:07.728Z,9.93
2023-02-07T15:50:41.493Z,9.67
2023-02-07T15:53:23.679Z,11.00
2023-02-07T15:55:57.145Z,10.97
2023-02-07T15:58:36.106Z,10.47
2023-02-07T16:01:17.825Z,10.30
2023-02-07T16:03:51.967Z,10.93
2023-02-07T16:06:27.540Z,10.30
2023-02-07T16:09:03.050Z,10.60
2023-02-07T16:11:41.326Z,10.13
2023-02-07T16:14:25.743Z,9.73
2023-02-07T16:17:00.038Z,10.53
2023-02-07T16:19:34.111Z,9.67
2023-02-07T16:22:13.320Z,9.80
2023-02-07T16:24:49.526Z,10.43
2023-02-07T16:27:30.210Z,10.90
2023-02-07T16:30:05.650Z,10.67
2023-02-07T16:32:38.712Z,10.83
2023-02-07T16:35:23.518Z,12.40
2023-02-07T16:37:56.791Z,11.97
2023-02-07T16:40:30.283Z,12.33
2023-02-07T16:43:06.735Z,11.87
2023-02-07T16:45:41.493Z,12.17
2023-02-07T16:48:16.243Z,12.70
2023-02-07T16:50:49.281Z,14.00
2023-02-07T16:53:22.328Z,13.00
2023-02-07T16:55:57.296Z,12.67
2023-02-07T16:58:33.126Z,13.63
2023-02-07T17:01:07.948Z,14.40
2023-02-07T17:03:41.412Z,18.30
2023-02-07T17:06:15.969Z,15.97
2023-02-07T17:08:51.051Z,15.93
2023-02-07T17:11:26.479Z,24.03
2023-02-07T17:14:00.381Z,26.43
2023-02-07T17:16:34.901Z,22.07
2023-02-07T17:19:13.317Z,22.33
2023-02-07T17:21:46.987Z,34.03
2023-02-07T17:24:20.410Z,24.53
2023-02-07T17:26:55.104Z,26.87
2023-02-07T17:29:28.230Z,21.57
2023-02-07T17:32:02.770Z,20.67
2023-02-07T17:34:35.830Z,18.20
2023-02-07T17:37:16.501Z,17.67
2023-02-07T17:39:54.615Z,19.50
2023-02-07T17:42:27.836Z,15.50
2023-02-07T17:45:00.890Z,15.87
2023-02-07T17:47:35.501Z,17.87
2023-02-07T17:50:11.355Z,18.60
2023-02-07T17:52:44.594Z,21.57
2023-02-07T17:55:18.708Z,17.23
2023-02-07T17:57:52.271Z,16.07
2023-02-07T18:00:31.190Z,17.00
2023-02-07T18:03:12.502Z,16.07
2023-02-07T18:05:45.600Z,16.43
2023-02-07T18:08:19.035Z,16.37
2023-02-07T18:10:52.551Z,16.10
2023-02-07T18:13:25.897Z,16.33
2023-02-07T18:15:59.215Z,16.73
2023-02-07T18:18:33.656Z,17.47
2023-02-07T18:21:07.183Z,21.30
2023-02-07T18:23:40.363Z,19.50
2023-02-07T18:26:15.527Z,19.00
2023-02-07T18:28:48.970Z,20.17
2023-02-07T18:31:25.153Z,23.37
2023-02-07T18:33:59.604Z,20.80
2023-02-07T18:36:40.048Z,21.10
2023-02-07T18:39:14.463Z,17.70
2023-02-07T18:41:47.681Z,19.90
2023-02-07T18:44:20.845Z,18.83
2023-02-07T18:46:54.275Z,18.57
2023-02-07T18:49:28.974Z,18.27
2023-02-07T18:52:02.569Z,18.13
2023-02-07T18:54:36.295Z,16.90
2023-02-07T18:57:09.589Z,18.43
2023-02-07T18:59:42.815Z,17.73
2023-02-07T19:02:15.861Z,16.47
2023-02-07T19:04:50.638Z,19.40
2023-02-07T19:07:23.710Z,21.67
2023-02-07T19:09:56.775Z,21.63
2023-02-07T19:12:29.949Z,23.47
2023-02-07T19:15:03.003Z,20.70
2023-02-07T19:17:36.913Z,22.20
2023-02-07T19:20:12.701Z,21.13
2023-02-07T19:22:46.788Z,21.47
2023-02-07T19:25:19.896Z,23.50
2023-02-07T19:27:52.921Z,23.23
2023-02-07T19:30:26.306Z,20.03
2023-02-07T19:32:59.475Z,23.93
2023-02-07T19:35:35.774Z,24.83
2023-02-07T19:38:09.138Z,24.87
2023-02-07T19:40:42.447Z,28.20
2023-02-07T19:43:15.794Z,25.10
2023-02-07T19:45:49.864Z,32.00
2023-02-07T19:48:23.900Z,27.33
2023-02-07T19:51:02.909Z,32.30
2023-02-07T19:53:36.947Z,29.53
2023-02-07T19:56:11.267Z,30.57
2023-02-07T19:58:47.652Z,23.97
2023-02-07T20:01:22.170Z,19.97
2023-02-07T20:03:56.909Z,20.70
2023-02-07T20:06:34.152Z,20.87
2023-02-07T20:09:09.624Z,17.40
2023-02-07T20:11:42.656Z,20.13
2023-02-07T20:14:15.751Z,23.03
2023-02-07T20:16:49.323Z,27.27
2023-02-07T20:19:22.361Z,26.00
2023-02-07T20:21:57.135Z,22.03
2023-02-07T20:24:30.397Z,19.43
2023-02-07T20:27:03.660Z,20.43
2023-02-07T20:29:36.731Z,21.83
2023-02-07T20:32:12.741Z,26.20
2023-02-07T20:34:46.048Z,24.57
2023-02-07T20:37:20.505Z,24.73
2023-02-07T20:39:53.563Z,24.57
2023-02-07T20:42:26.643Z,24.77
2023-02-07T20:45:00.056Z,24.27
2023-02-07T20:47:33.125Z,23.80
2023-02-07T20:50:07.972Z,28.33
2023-02-07T20:52:42.336Z,27.17
2023-02-07T20:55:15.747Z,27.87
2023-02-07T20:57:49.368Z,25.33
2023-02-07T21:00:22.666Z,27.03
2023-02-07T21:02:55.718Z,25.77
2023-02-07T21:05:28.734Z,27.27
2023-02-07T21:08:03.532Z,24.90
2023-02-07T21:10:37.146Z,22.70
2023-02-07T21:13:10.228Z,29.70
2023-02-07T21:15:49.832Z,27.83
2023-02-07T21:18:28.605Z,25.10
2023-02-07T21:21:03.519Z,25.33
2023-02-07T21:23:38.657Z,25.67
2023-02-07T21:26:14.906Z,24.00
2023-02-07T21:28:48.703Z,26.30
2023-02-07T21:31:23.214Z,28.37
2023-02-07T21:33:57.173Z,27.43
2023-02-07T21:36:32.499Z,29.97
2023-02-07T21:39:12.027Z,25.73
2023-02-07T21:41:46.859Z,23.47
2023-02-07T21:44:21.282Z,25.37
2023-02-07T21:46:54.360Z,21.87
2023-02-07T21:49:27.488Z,28.00
2023-02-07T21:52:00.955Z,21.80
2023-02-07T21:54:35.708Z,22.30
2023-02-07T21:57:08.745Z,24.33
2023-02-07T21:59:42.525Z,22.80
2023-02-07T22:02:15.820Z,22.23
2023-02-07T22:04:48.834Z,23.67
2023-02-07T22:07:21.863Z,22.43
2023-02-07T22:09:56.310Z,23.47
2023-02-07T22:12:29.424Z,23.57
2023-02-07T22:15:02.533Z,23.70
2023-02-07T22:17:35.620Z,25.23
2023-02-07T22:20:10.391Z,26.90
2023-02-07T22:22:43.477Z,29.50
2023-02-07T22:25:18.263Z,29.70
2023-02-07T22:27:51.628Z,33.60
2023-02-07T22:30:25.110Z,26.07
2023-02-07T22:32:58.222Z,32.50
2023-02-07T22:35:31.266Z,33.17
2023-02-07T22:38:04.883Z,28.60
2023-02-07T22:40:41.280Z,28.67
2023-02-07T22:43:17.182Z,34.33
2023-02-07T22:45:50.377Z,38.30
2023-02-07T22:48:23.396Z,21.80
2023-02-07T22:50:56.403Z,28.67
2023-02-07T22:53:29.417Z,28.17
2023-02-07T22:56:03.980Z,29.73
2023-02-07T22:58:37.948Z,26.77
2023-02-07T23:01:21.789Z,27.87
2023-02-07T23:03:55.572Z,26.27
2023-02-07T23:06:28.940Z,21.43
2023-02-07T23:09:02.500Z,21.23
2023-02-07T23:11:37.875Z,22.80
2023-02-07T23:14:10.969Z,21.57
2023-02-07T23:16:44.602Z,22.63
2023-02-07T23:19:19.090Z,21.80
2023-02-07T23:21:52.133Z,21.00
2023-02-07T23:24:25.191Z,21.50
2023-02-07T23:26:59.931Z,19.40
2023-02-07T23:29:32.975Z,17.87
2023-02-07T23:32:06.381Z,20.97
2023-02-07T23:34:39.445Z,17.77
2023-02-07T23:37:12.596Z,18.90
2023-02-07T23:39:45.622Z,19.63
2023-02-07T23:42:20.088Z,18.70
2023-02-07T23:44:53.387Z,19.17
2023-02-07T23:47:26.598Z,21.13
2023-02-07T23:49:59.717Z,20.77
2023-02-07T23:52:32.803Z,22.23
2023-02-07T23:55:07.217Z,19.63
2023-02-07T23:57:41.846Z,18.97
